Hlavní strana
METAR-TAF:

METAR-TAF

Letiště :

Laupheim, Německo

zeměpisná šířka: 48-13N, zeměpisná délka: 009-55E, výška: 538 m

Aktuální stav počasí

Zpráva byla vytvořena před 41 minutami, v 10:20 UTC
Jižní vítr 3 kt
Teplota 26°C
Vlhkost vzduchu 39%
Tlak 1021 hPa
Viditelnost 10 km a více
Skoro jasno ve výšce 6000 ft

METAR: ETHL 201020Z 19003KT 9999 FEW060 26/11 Q1021 BLACKBLU+BLU+

Čas: 13:01 (11:01 UTC)

Předpověď počasí

Zpráva byla vytvořena před 45 minutami, v 10:16 UTC
Předpověď platná od 20 v 11 UTC do 20 v 20 UTC
vítr z různých směrů 3 kt
Viditelnost 10 km a více
Skoro jasno ve výšce 6000 ft

TAF: ETHL 201016Z 2011/2020 VRB03KT 9999 NSW FEW060

Stav a předpovědi počasí z více než 4 000 letišť (zprávy METAR a TAF).

Červené a žluté tečky na mapě představují dostupné meteorologické stanice.

Když kurzor umístíte na tečku, zobrazí se název stanice.

Pak kliknutím zobrazíte stav a předpověď počasí.

Chcete-li změnit mapu, kliknutím na zelené tlačítko se znaménkem +mapu přiblížíte, kliknutím na zelené tlačítko se znaménkem – mapu oddálíte a kliknutím na zelené šipky přejdete na sousední mapy.


METAR-TAF: